createdAt,value
2023-04-15T00:00:01.538Z,2.70
2023-04-15T00:01:01.501Z,2.59
2023-04-15T00:02:01.636Z,2.61
2023-04-15T00:03:01.653Z,2.59
2023-04-15T00:04:01.589Z,2.47
2023-04-15T00:05:01.469Z,2.40
2023-04-15T00:06:01.512Z,2.32
2023-04-15T00:07:01.580Z,2.25
2023-04-15T00:08:01.567Z,2.26
2023-04-15T00:09:01.816Z,2.23
2023-04-15T00:10:01.697Z,2.26
2023-04-15T00:11:01.669Z,2.26
2023-04-15T00:12:01.698Z,2.36
2023-04-15T00:13:01.721Z,2.49
2023-04-15T00:14:01.771Z,2.40
2023-04-15T00:15:01.863Z,2.50
2023-04-15T00:16:01.808Z,2.63
2023-04-15T00:17:01.912Z,2.45
2023-04-15T00:18:01.908Z,2.51
2023-04-15T00:19:02.124Z,2.48
2023-04-15T00:20:01.948Z,2.61
2023-04-15T00:21:01.994Z,2.60
2023-04-15T00:22:02.032Z,2.65
2023-04-15T00:23:02.064Z,2.65
2023-04-15T00:24:02.127Z,2.66
2023-04-15T00:25:02.135Z,2.67
2023-04-15T00:26:02.248Z,2.77
2023-04-15T00:27:02.191Z,2.78
2023-04-15T00:28:02.212Z,2.80
2023-04-15T00:29:02.416Z,3.01
2023-04-15T00:30:02.279Z,2.82
2023-04-15T00:31:02.459Z,2.81
2023-04-15T00:32:02.360Z,2.86
2023-04-15T00:33:02.419Z,2.91
2023-04-15T00:34:02.417Z,2.92
2023-04-15T00:35:02.451Z,2.90
2023-04-15T00:36:02.489Z,2.86
2023-04-15T00:37:02.518Z,2.89
2023-04-15T00:38:02.549Z,2.93
2023-04-15T00:39:02.731Z,3.01
2023-04-15T00:40:02.625Z,2.96
2023-04-15T00:41:02.673Z,2.99
2023-04-15T00:42:02.710Z,3.10
2023-04-15T00:43:02.752Z,3.04
2023-04-15T00:44:02.786Z,2.93
2023-04-15T00:45:02.799Z,3.04
2023-04-15T00:46:02.877Z,2.91
2023-04-15T00:47:02.876Z,2.88
2023-04-15T00:48:02.915Z,2.82
2023-04-15T00:49:02.971Z,2.56
2023-04-15T00:50:02.985Z,2.40
2023-04-15T00:51:03.011Z,2.19
2023-04-15T00:52:03.034Z,2.03
2023-04-15T00:53:03.083Z,2.00
2023-04-15T00:54:03.212Z,1.86
2023-04-15T00:55:03.166Z,1.80
2023-04-15T00:56:03.191Z,1.86
2023-04-15T00:57:03.221Z,1.84
2023-04-15T00:58:03.256Z,1.94
2023-04-15T00:59:03.284Z,1.97
2023-04-15T01:00:03.328Z,2.00
2023-04-15T01:01:03.354Z,1.82
2023-04-15T01:02:03.454Z,1.73
2023-04-15T01:03:03.498Z,1.57
2023-04-15T01:04:03.610Z,1.53
2023-04-15T01:05:03.496Z,1.51
2023-04-15T01:06:04.152Z,1.51
2023-04-15T01:07:03.561Z,1.48
2023-04-15T01:08:03.594Z,1.48
2023-04-15T01:09:03.838Z,1.50
2023-04-15T01:10:03.649Z,1.43
2023-04-15T01:11:03.748Z,1.39
2023-04-15T01:12:03.712Z,1.63
2023-04-15T01:13:03.790Z,1.55
2023-04-15T01:14:03.783Z,1.33
2023-04-15T01:15:03.828Z,1.19
2023-04-15T01:16:03.987Z,1.13
2023-04-15T01:17:03.890Z,1.13
2023-04-15T01:18:03.964Z,1.15
2023-04-15T01:19:03.966Z,1.27
2023-04-15T01:20:04.000Z,1.27
2023-04-15T01:21:04.027Z,1.33
2023-04-15T01:22:04.168Z,1.54
2023-04-15T01:23:04.103Z,1.57
2023-04-15T01:24:04.143Z,1.48
2023-04-15T01:25:04.160Z,1.35
2023-04-15T01:26:04.185Z,1.13
2023-04-15T01:27:04.240Z,1.06
2023-04-15T01:28:04.266Z,1.02
2023-04-15T01:29:04.298Z,1.00
2023-04-15T01:30:04.352Z,1.16
2023-04-15T01:31:04.402Z,1.17
2023-04-15T01:32:04.425Z,1.13
2023-04-15T01:33:04.534Z,1.14
2023-04-15T01:34:04.498Z,1.12
2023-04-15T01:35:04.519Z,1.13
2023-04-15T01:36:04.555Z,1.35
2023-04-15T01:37:04.600Z,1.26
2023-04-15T01:38:04.720Z,1.07
2023-04-15T01:39:04.668Z,0.96
2023-04-15T01:40:04.701Z,0.95
2023-04-15T01:41:04.725Z,0.92
2023-04-15T01:42:04.770Z,0.87
2023-04-15T01:43:04.800Z,0.84
2023-04-15T01:44:04.844Z,0.84
2023-04-15T01:45:04.891Z,0.81
2023-04-15T01:46:04.930Z,0.79
2023-04-15T01:47:04.994Z,0.94
2023-04-15T01:48:04.991Z,0.97
2023-04-15T01:49:05.033Z,0.90
2023-04-15T01:50:05.082Z,0.82
2023-04-15T01:51:05.103Z,0.83
2023-04-15T01:52:05.138Z,0.72
2023-04-15T01:53:05.196Z,0.73
2023-04-15T01:54:05.208Z,0.79
2023-04-15T01:55:05.259Z,0.80
2023-04-15T01:56:05.302Z,0.76
2023-04-15T01:57:05.324Z,0.78
2023-04-15T01:58:05.364Z,0.80
2023-04-15T01:59:05.429Z,0.76
2023-04-15T02:00:05.552Z,0.75
2023-04-15T02:01:05.544Z,0.78
2023-04-15T02:02:05.592Z,0.71
2023-04-15T02:03:05.633Z,0.64
2023-04-15T02:04:05.664Z,0.62
2023-04-15T02:05:05.679Z,0.62
2023-04-15T02:06:05.706Z,0.68
2023-04-15T02:07:05.745Z,0.79
2023-04-15T02:08:05.788Z,0.79
2023-04-15T02:09:05.828Z,0.73
2023-04-15T02:10:05.880Z,0.81
2023-04-15T02:11:05.915Z,0.82
2023-04-15T02:12:05.958Z,0.80
2023-04-15T02:13:05.961Z,0.81
2023-04-15T02:14:06.018Z,0.70
2023-04-15T02:15:06.045Z,0.62
2023-04-15T02:16:06.151Z,0.59
2023-04-15T02:17:06.130Z,0.58
2023-04-15T02:18:06.173Z,0.67
2023-04-15T02:19:06.229Z,0.67
2023-04-15T02:20:06.247Z,0.63
2023-04-15T02:21:06.297Z,0.68
2023-04-15T02:22:06.327Z,0.63
2023-04-15T02:23:06.460Z,0.57
2023-04-15T02:24:06.456Z,0.59
2023-04-15T02:25:06.469Z,0.55
2023-04-15T02:26:06.523Z,0.54
2023-04-15T02:27:06.547Z,0.52
2023-04-15T02:28:06.640Z,0.50
2023-04-15T02:29:06.632Z,0.57
2023-04-15T02:30:06.695Z,0.59
2023-04-15T02:31:06.711Z,0.56
2023-04-15T02:32:06.889Z,0.62
2023-04-15T02:33:06.794Z,0.60
2023-04-15T02:34:06.861Z,0.67
2023-04-15T02:35:06.903Z,0.66
2023-04-15T02:36:06.928Z,0.67
2023-04-15T02:37:06.978Z,0.60
2023-04-15T02:38:07.020Z,0.52
2023-04-15T02:39:07.073Z,0.49
2023-04-15T02:40:07.123Z,0.52
2023-04-15T02:41:07.143Z,0.54
2023-04-15T02:42:07.193Z,0.58
2023-04-15T02:43:07.243Z,0.58
2023-04-15T02:44:07.270Z,0.67
2023-04-15T02:45:07.404Z,0.65
2023-04-15T02:46:07.411Z,0.68
2023-04-15T02:47:07.424Z,0.64
2023-04-15T02:48:07.458Z,0.63
2023-04-15T02:49:07.483Z,0.62
2023-04-15T02:50:07.524Z,0.52
2023-04-15T02:51:07.564Z,0.53
2023-04-15T02:52:07.620Z,0.51
2023-04-15T02:53:07.688Z,0.53
2023-04-15T02:54:07.691Z,0.58
2023-04-15T02:55:07.759Z,0.67
2023-04-15T02:56:07.771Z,0.73
2023-04-15T02:57:07.817Z,0.68
2023-04-15T02:58:07.852Z,0.65
2023-04-15T02:59:07.912Z,0.60
2023-04-15T03:00:07.946Z,0.54
2023-04-15T03:01:08.017Z,0.52
2023-04-15T03:02:08.070Z,0.51
2023-04-15T03:03:08.235Z,0.51
2023-04-15T03:04:08.211Z,0.50
2023-04-15T03:05:08.177Z,0.60
2023-04-15T03:06:08.240Z,0.66
2023-04-15T03:07:08.252Z,0.66
2023-04-15T03:08:08.411Z,0.61
2023-04-15T03:09:08.356Z,0.64
2023-04-15T03:10:08.404Z,0.62
2023-04-15T03:11:08.482Z,0.65
2023-04-15T03:12:08.474Z,0.68
2023-04-15T03:13:08.520Z,0.63
2023-04-15T03:14:08.586Z,0.56
2023-04-15T03:15:08.625Z,0.54
2023-04-15T03:16:08.674Z,0.53
2023-04-15T03:17:08.709Z,0.58
2023-04-15T03:18:08.779Z,0.59
2023-04-15T03:19:08.776Z,0.71
2023-04-15T03:20:08.864Z,0.74
2023-04-15T03:21:08.884Z,0.75
2023-04-15T03:22:08.914Z,0.68
2023-04-15T03:23:08.995Z,0.70
2023-04-15T03:24:09.005Z,0.75
2023-04-15T03:25:09.048Z,0.78
2023-04-15T03:26:09.087Z,0.65
2023-04-15T03:27:09.133Z,0.61
2023-04-15T03:28:09.168Z,0.54
2023-04-15T03:29:09.204Z,0.57
2023-04-15T03:30:09.358Z,0.65
2023-04-15T03:31:09.342Z,0.66
2023-04-15T03:32:09.347Z,0.71
2023-04-15T03:33:09.404Z,0.70
2023-04-15T03:34:09.421Z,0.65
2023-04-15T03:35:09.496Z,0.67
2023-04-15T03:36:09.535Z,0.75
2023-04-15T03:37:09.556Z,0.81
2023-04-15T03:38:09.602Z,0.71
2023-04-15T03:39:09.686Z,0.63
2023-04-15T03:40:09.718Z,0.58
2023-04-15T03:41:09.747Z,0.55
2023-04-15T03:42:09.789Z,0.52
2023-04-15T03:43:09.839Z,0.59
2023-04-15T03:44:09.865Z,0.63
2023-04-15T03:45:09.950Z,0.67
2023-04-15T03:46:09.979Z,0.70
2023-04-15T03:47:10.019Z,0.69
2023-04-15T03:49:10.067Z,0.73
2023-04-15T03:50:10.064Z,0.79
2023-04-15T03:51:10.054Z,0.76
2023-04-15T03:52:10.039Z,0.64
2023-04-15T03:53:10.024Z,0.58
2023-04-15T03:54:10.028Z,0.55
2023-04-15T03:55:10.015Z,0.58
2023-04-15T03:56:10.001Z,0.60
2023-04-15T03:57:10.036Z,0.60
2023-04-15T03:58:10.036Z,0.66
2023-04-15T03:59:09.996Z,0.63
2023-04-15T04:00:10.058Z,0.64
2023-04-15T04:01:10.013Z,0.67
2023-04-15T04:02:10.044Z,0.66
2023-04-15T04:03:10.258Z,0.80
2023-04-15T04:04:10.034Z,0.80
2023-04-15T04:05:10.003Z,0.73
2023-04-15T04:06:09.965Z,0.66
2023-04-15T04:07:10.031Z,0.56
2023-04-15T04:08:09.953Z,0.54
2023-04-15T04:09:09.988Z,0.61
2023-04-15T04:10:09.932Z,0.63
2023-04-15T04:11:09.921Z,0.62
2023-04-15T04:12:09.925Z,0.57
2023-04-15T04:13:09.916Z,0.63
2023-04-15T04:14:09.911Z,0.64
2023-04-15T04:15:09.907Z,0.65
2023-04-15T04:16:09.962Z,0.60
2023-04-15T04:17:09.920Z,0.62
2023-04-15T04:18:09.879Z,0.61
2023-04-15T04:19:09.861Z,0.58
2023-04-15T04:20:09.873Z,0.49
2023-04-15T04:21:09.848Z,0.50
2023-04-15T04:22:09.867Z,0.52
2023-04-15T04:23:09.844Z,0.58
2023-04-15T04:24:09.832Z,0.54
2023-04-15T04:25:09.840Z,0.55
2023-04-15T04:26:09.834Z,0.56
2023-04-15T04:27:09.829Z,0.55
2023-04-15T04:28:09.806Z,0.60
2023-04-15T04:29:09.797Z,0.61
2023-04-15T04:30:09.818Z,0.55
2023-04-15T04:31:09.792Z,0.52
2023-04-15T04:32:09.888Z,0.57
2023-04-15T04:33:09.795Z,0.52
2023-04-15T04:34:09.833Z,0.52
2023-04-15T04:35:09.883Z,0.52
2023-04-15T04:36:09.939Z,0.52
2023-04-15T04:37:09.970Z,0.56
2023-04-15T04:38:10.024Z,0.58
2023-04-15T04:39:10.098Z,0.56
2023-04-15T04:40:10.130Z,0.53
2023-04-15T04:41:10.192Z,0.56
2023-04-15T04:42:10.224Z,0.54
2023-04-15T04:43:10.295Z,0.56
2023-04-15T04:44:10.336Z,0.63
2023-04-15T04:45:10.383Z,0.62
2023-04-15T04:46:10.533Z,0.60
2023-04-15T04:47:10.487Z,0.60
2023-04-15T04:48:10.556Z,0.55
2023-04-15T04:49:10.574Z,0.51
2023-04-15T04:50:10.653Z,0.50
2023-04-15T04:51:10.677Z,0.58
2023-04-15T04:52:10.737Z,0.58
2023-04-15T04:53:10.770Z,0.58
2023-04-15T04:54:10.839Z,0.62
2023-04-15T04:55:10.877Z,0.65
2023-04-15T04:56:10.944Z,0.66
2023-04-15T04:57:10.988Z,0.64
2023-04-15T04:58:11.028Z,0.65
2023-04-15T04:59:11.083Z,0.62
2023-04-15T05:00:11.129Z,0.68
2023-04-15T05:01:11.245Z,0.70
2023-04-15T05:02:11.347Z,0.69
2023-04-15T05:03:11.396Z,0.66
2023-04-15T05:04:11.519Z,0.57
2023-04-15T05:05:11.393Z,0.54
2023-04-15T05:06:11.449Z,0.55
2023-04-15T05:07:11.488Z,0.58
2023-04-15T05:08:11.523Z,0.66
2023-04-15T05:09:11.568Z,0.70
2023-04-15T05:10:11.640Z,0.66
2023-04-15T05:11:11.685Z,0.63
2023-04-15T05:12:11.718Z,0.61
2023-04-15T05:13:11.781Z,0.62
2023-04-15T05:14:11.838Z,0.62
2023-04-15T05:15:11.870Z,0.59
2023-04-15T05:16:11.942Z,0.61
2023-04-15T05:17:11.965Z,0.66
2023-04-15T05:18:12.021Z,0.64
2023-04-15T05:19:12.064Z,0.68
2023-04-15T05:20:12.121Z,0.72
2023-04-15T05:21:12.170Z,0.74
2023-04-15T05:22:12.219Z,0.70
2023-04-15T05:23:12.276Z,0.67
2023-04-15T05:24:12.318Z,0.67
2023-04-15T05:25:12.366Z,0.72
2023-04-15T05:26:12.400Z,0.80
2023-04-15T05:27:12.452Z,0.75
2023-04-15T05:28:12.507Z,0.72
2023-04-15T05:29:12.561Z,0.66
2023-04-15T05:30:13.727Z,0.72
2023-04-15T05:31:12.667Z,0.78
2023-04-15T05:32:12.688Z,0.85
2023-04-15T05:33:12.750Z,0.86
2023-04-15T05:34:12.808Z,0.81
2023-04-15T05:35:12.832Z,0.77
2023-04-15T05:36:12.887Z,0.77
2023-04-15T05:37:12.937Z,0.75
2023-04-15T05:38:12.968Z,0.78
2023-04-15T05:39:13.026Z,0.86
2023-04-15T05:40:13.071Z,0.96
2023-04-15T05:41:13.111Z,0.93
2023-04-15T05:42:13.154Z,0.85
2023-04-15T05:43:13.200Z,0.96
2023-04-15T05:44:13.260Z,0.96
2023-04-15T05:45:13.310Z,0.97
2023-04-15T05:46:13.367Z,0.90
2023-04-15T05:47:13.398Z,0.87
2023-04-15T05:48:13.431Z,0.79
2023-04-15T05:49:13.485Z,0.77
2023-04-15T05:50:13.526Z,0.76
2023-04-15T05:51:13.578Z,0.84
2023-04-15T05:52:13.657Z,0.82
2023-04-15T05:53:13.686Z,0.81
2023-04-15T05:54:13.723Z,0.74
2023-04-15T05:55:13.788Z,0.72
2023-04-15T05:56:13.842Z,0.75
2023-04-15T05:57:13.878Z,0.75
2023-04-15T05:58:13.919Z,0.73
2023-04-15T05:59:13.972Z,0.72
2023-04-15T06:00:14.008Z,0.67
2023-04-15T06:01:14.059Z,0.71
2023-04-15T06:02:14.172Z,0.68
2023-04-15T06:03:14.245Z,0.76
2023-04-15T06:04:14.261Z,0.77
2023-04-15T06:05:14.251Z,0.69
2023-04-15T06:06:14.322Z,0.61
2023-04-15T06:07:14.349Z,0.58
2023-04-15T06:08:14.382Z,0.57
2023-04-15T06:09:14.428Z,0.62
2023-04-15T06:10:14.497Z,0.62
2023-04-15T06:11:14.534Z,0.62
2023-04-15T06:12:14.579Z,0.71
2023-04-15T06:13:14.634Z,0.72
2023-04-15T06:14:14.680Z,0.82
2023-04-15T06:15:14.727Z,0.85
2023-04-15T06:16:14.835Z,0.78
2023-04-15T06:17:14.812Z,0.86
2023-04-15T06:18:14.868Z,0.96
2023-04-15T06:19:14.966Z,0.91
2023-04-15T06:20:14.974Z,0.87
2023-04-15T06:21:15.007Z,0.95
2023-04-15T06:22:15.048Z,0.83
2023-04-15T06:23:15.110Z,0.73
2023-04-15T06:24:15.147Z,0.72
2023-04-15T06:25:15.214Z,0.66
2023-04-15T06:26:15.258Z,0.71
2023-04-15T06:27:15.312Z,0.86
2023-04-15T06:28:15.321Z,1.03
2023-04-15T06:29:15.385Z,0.99
2023-04-15T06:30:15.394Z,0.82
2023-04-15T06:31:15.469Z,0.73
2023-04-15T06:32:15.458Z,0.73
2023-04-15T06:33:15.496Z,0.73
2023-04-15T06:34:15.530Z,0.80
2023-04-15T06:35:15.562Z,0.76
2023-04-15T06:36:15.607Z,0.74
2023-04-15T06:37:15.627Z,0.68
2023-04-15T06:38:15.641Z,0.58
2023-04-15T06:39:15.680Z,0.58
2023-04-15T06:40:15.724Z,0.57
2023-04-15T06:41:15.760Z,0.56
2023-04-15T06:42:15.797Z,0.74
2023-04-15T06:43:15.858Z,0.82
2023-04-15T06:44:15.901Z,0.78
2023-04-15T06:45:15.961Z,0.69
2023-04-15T06:46:16.033Z,0.60
2023-04-15T06:47:16.078Z,0.53
2023-04-15T06:48:16.054Z,0.51
2023-04-15T06:49:16.110Z,0.51
2023-04-15T06:50:16.135Z,0.53
2023-04-15T06:51:16.185Z,0.68
2023-04-15T06:52:16.214Z,0.84
2023-04-15T06:53:16.252Z,0.91
2023-04-15T06:54:16.304Z,0.88
2023-04-15T06:55:16.355Z,0.76
2023-04-15T06:56:16.384Z,0.71
2023-04-15T06:57:16.452Z,0.62
2023-04-15T06:58:16.478Z,0.60
2023-04-15T06:59:16.519Z,0.59
2023-04-15T07:00:16.561Z,0.61
2023-04-15T07:01:16.677Z,0.70
2023-04-15T07:02:16.680Z,0.67
2023-04-15T07:03:16.759Z,0.62
2023-04-15T07:04:16.763Z,0.59
2023-04-15T07:05:16.795Z,0.58
2023-04-15T07:06:16.820Z,0.56
2023-04-15T07:07:16.851Z,0.62
2023-04-15T07:08:16.897Z,0.60
2023-04-15T07:09:16.969Z,0.61
2023-04-15T07:10:16.999Z,0.61
2023-04-15T07:11:17.013Z,0.59
2023-04-15T07:12:17.073Z,0.56
2023-04-15T07:13:17.113Z,0.52
2023-04-15T07:14:17.136Z,0.54
2023-04-15T07:15:17.178Z,0.64
2023-04-15T07:16:17.239Z,0.64
2023-04-15T07:17:17.276Z,0.59
2023-04-15T07:18:17.290Z,0.59
2023-04-15T07:19:17.336Z,0.56
2023-04-15T07:20:17.389Z,0.54
2023-04-15T07:21:17.415Z,0.50
2023-04-15T07:22:17.459Z,0.53
2023-04-15T07:23:17.517Z,0.50
2023-04-15T07:24:17.529Z,0.54
2023-04-15T07:25:17.589Z,0.55
2023-04-15T07:26:17.615Z,0.53
2023-04-15T07:27:17.665Z,0.53
2023-04-15T07:28:17.685Z,0.51
2023-04-15T07:29:17.744Z,0.51
2023-04-15T07:30:17.760Z,0.51
2023-04-15T07:31:17.858Z,0.51
2023-04-15T07:32:17.835Z,0.51
2023-04-15T07:33:17.928Z,0.54
2023-04-15T07:34:17.905Z,0.55
2023-04-15T07:35:17.939Z,0.54
2023-04-15T07:36:17.985Z,0.51
2023-04-15T07:37:18.016Z,0.54
2023-04-15T07:38:18.049Z,0.57
2023-04-15T07:39:18.098Z,0.52
2023-04-15T07:40:18.114Z,0.50
2023-04-15T07:41:18.137Z,0.52
2023-04-15T07:42:18.190Z,0.51
2023-04-15T07:43:18.208Z,0.53
2023-04-15T07:44:18.239Z,0.54
2023-04-15T07:45:18.286Z,0.52
2023-04-15T07:46:18.345Z,0.52
2023-04-15T07:47:18.409Z,0.51
2023-04-15T07:48:18.368Z,0.50
2023-04-15T07:49:18.408Z,0.53
2023-04-15T07:50:18.440Z,0.51
2023-04-15T07:51:18.464Z,0.50
2023-04-15T07:52:18.514Z,0.51
2023-04-15T07:53:18.557Z,0.53
2023-04-15T07:54:18.562Z,0.52
2023-04-15T07:55:18.591Z,0.53
2023-04-15T07:56:18.621Z,0.51
2023-04-15T07:57:18.672Z,0.52
2023-04-15T07:58:18.690Z,0.51
2023-04-15T07:59:18.728Z,0.50
2023-04-15T08:00:18.748Z,0.51
2023-04-15T08:01:18.758Z,0.51
2023-04-15T08:02:18.895Z,0.56
2023-04-15T08:03:18.913Z,0.58
2023-04-15T08:04:19.046Z,0.59
2023-04-15T08:05:19.060Z,0.55
2023-04-15T08:06:18.948Z,0.55
2023-04-15T08:07:18.992Z,0.56
2023-04-15T08:08:19.009Z,0.58
2023-04-15T08:09:19.027Z,0.57
2023-04-15T08:10:19.076Z,0.58
2023-04-15T08:11:19.102Z,0.54
2023-04-15T08:12:19.147Z,0.53
2023-04-15T08:13:19.191Z,0.54
2023-04-15T08:14:19.218Z,0.56
2023-04-15T08:15:19.234Z,0.55
2023-04-15T08:16:19.332Z,0.55
2023-04-15T08:17:19.353Z,0.54
2023-04-15T08:18:19.356Z,0.52
2023-04-15T08:19:19.367Z,0.58
2023-04-15T08:20:19.409Z,0.58
2023-04-15T08:21:19.445Z,0.54
2023-04-15T08:22:21.180Z,0.55
2023-04-15T08:23:19.523Z,0.54
2023-04-15T08:24:19.571Z,0.52
2023-04-15T08:25:19.609Z,0.51
2023-04-15T08:26:19.621Z,0.53
2023-04-15T08:27:19.671Z,0.56
2023-04-15T08:28:19.688Z,0.56
2023-04-15T08:29:19.711Z,0.52
2023-04-15T08:30:19.778Z,0.53
2023-04-15T08:31:19.852Z,0.55
2023-04-15T08:32:19.863Z,0.58
2023-04-15T08:33:19.864Z,0.55
2023-04-15T08:34:19.889Z,0.53
2023-04-15T08:35:19.936Z,0.51
2023-04-15T08:36:19.964Z,0.51
2023-04-15T08:37:19.969Z,0.54
2023-04-15T08:38:20.022Z,0.52
2023-04-15T08:39:20.043Z,0.52
2023-04-15T08:40:20.106Z,0.55
2023-04-15T08:41:20.131Z,0.59
2023-04-15T08:42:20.125Z,0.66
2023-04-15T08:43:20.163Z,0.72
2023-04-15T08:44:20.206Z,0.66
2023-04-15T08:45:20.231Z,0.65
2023-04-15T08:46:20.265Z,0.59
2023-04-15T08:47:20.283Z,0.55
2023-04-15T08:48:20.307Z,0.57
2023-04-15T08:49:20.348Z,0.57
2023-04-15T08:50:20.378Z,0.54
2023-04-15T08:51:20.395Z,0.55
2023-04-15T08:52:20.430Z,0.55
2023-04-15T08:53:20.465Z,0.58
2023-04-15T08:54:20.478Z,0.59
2023-04-15T08:55:20.522Z,0.58
2023-04-15T08:56:20.608Z,0.60
2023-04-15T08:57:20.556Z,0.59
2023-04-15T08:58:20.602Z,0.56
2023-04-15T08:59:20.632Z,0.56
2023-04-15T09:00:20.660Z,0.53
2023-04-15T09:01:20.720Z,0.56
2023-04-15T09:02:20.767Z,0.56
2023-04-15T09:03:20.805Z,0.54
2023-04-15T09:04:20.817Z,0.57
2023-04-15T09:05:20.800Z,0.71
2023-04-15T09:06:20.811Z,0.63
2023-04-15T09:07:20.836Z,0.65
2023-04-15T09:08:20.923Z,0.56
2023-04-15T09:09:20.891Z,0.57
2023-04-15T09:10:20.917Z,0.56
2023-04-15T09:11:20.949Z,0.56
2023-04-15T09:12:20.976Z,0.64
2023-04-15T09:13:20.987Z,0.61
2023-04-15T09:14:21.045Z,0.63
2023-04-15T09:15:21.065Z,0.57
2023-04-15T09:16:21.096Z,0.58
2023-04-15T09:17:21.132Z,0.57
2023-04-15T09:18:21.146Z,0.66
2023-04-15T09:19:21.149Z,0.59
2023-04-15T09:20:21.159Z,0.61
2023-04-15T09:21:21.183Z,0.62
2023-04-15T09:22:21.199Z,0.56
2023-04-15T09:23:21.219Z,0.54
2023-04-15T09:24:21.254Z,0.51
2023-04-15T09:25:21.280Z,0.52
2023-04-15T09:26:21.289Z,0.58
2023-04-15T09:27:21.290Z,0.59
2023-04-15T09:28:21.330Z,0.60
2023-04-15T09:29:21.337Z,0.62
2023-04-15T09:30:21.354Z,0.57
2023-04-15T09:31:21.475Z,0.57
2023-04-15T09:32:21.409Z,0.61
2023-04-15T09:33:21.396Z,0.59
2023-04-15T09:34:21.426Z,0.56
2023-04-15T09:35:21.464Z,0.55
2023-04-15T09:36:21.454Z,0.58
2023-04-15T09:37:32.074Z,0.57
2023-04-15T09:38:22.477Z,0.57
2023-04-15T09:39:21.522Z,0.58
2023-04-15T09:40:21.459Z,0.58
2023-04-15T09:41:21.448Z,0.59
2023-04-15T09:42:21.441Z,0.62
2023-04-15T09:43:21.457Z,0.56
2023-04-15T09:44:21.430Z,0.58
2023-04-15T09:45:21.437Z,0.61
2023-04-15T09:46:21.470Z,0.64
2023-04-15T09:47:21.478Z,0.58
2023-04-15T09:48:21.410Z,0.59
2023-04-15T09:49:21.430Z,0.56
2023-04-15T09:50:21.409Z,0.52
2023-04-15T09:51:21.393Z,0.56
2023-04-15T09:52:21.391Z,0.50
2023-04-15T09:53:21.396Z,0.58
2023-04-15T09:54:21.365Z,0.64
2023-04-15T09:55:21.356Z,0.58
2023-04-15T09:56:21.365Z,0.58
2023-04-15T09:57:21.348Z,0.58
2023-04-15T09:58:21.343Z,0.57
2023-04-15T09:59:21.872Z,0.55
2023-04-15T10:00:21.338Z,0.55
2023-04-15T10:01:21.375Z,0.59
2023-04-15T10:02:21.449Z,0.53
2023-04-15T10:03:21.542Z,0.51
2023-04-15T10:04:21.537Z,0.51
2023-04-15T10:05:21.392Z,0.53
2023-04-15T10:06:21.412Z,0.53
2023-04-15T10:07:21.421Z,0.51
2023-04-15T10:08:21.465Z,0.50
2023-04-15T10:09:21.460Z,0.55
2023-04-15T10:10:21.444Z,0.64
2023-04-15T10:11:21.452Z,0.72
2023-04-15T10:12:21.464Z,0.64
2023-04-15T10:13:21.492Z,0.55
2023-04-15T10:14:21.513Z,0.56
2023-04-15T10:15:21.508Z,0.50
2023-04-15T10:16:21.576Z,0.53
2023-04-15T10:17:21.571Z,0.57
2023-04-15T10:18:21.541Z,0.61
2023-04-15T10:19:21.539Z,0.63
2023-04-15T10:20:21.550Z,0.58
2023-04-15T10:21:21.579Z,0.56
2023-04-15T10:22:21.588Z,0.57
2023-04-15T10:23:21.595Z,0.63
2023-04-15T10:24:21.608Z,0.79
2023-04-15T10:25:21.616Z,0.72
2023-04-15T10:26:21.621Z,0.70
2023-04-15T10:27:21.637Z,0.75
2023-04-15T10:28:21.656Z,0.65
2023-04-15T10:29:21.652Z,0.63
2023-04-15T10:30:21.664Z,0.69
2023-04-15T10:31:21.719Z,0.55
2023-04-15T10:32:21.707Z,0.67
2023-04-15T10:33:21.671Z,0.64
2023-04-15T10:34:21.686Z,0.67
2023-04-15T10:35:21.701Z,0.54
2023-04-15T10:36:21.717Z,0.51
2023-04-15T10:37:21.721Z,0.65
2023-04-15T10:38:21.750Z,0.56
2023-04-15T10:39:21.733Z,0.64
2023-04-15T10:40:21.736Z,0.59
2023-04-15T10:41:21.960Z,0.52
2023-04-15T10:42:21.745Z,0.52
2023-04-15T10:43:21.765Z,0.53
2023-04-15T10:44:21.780Z,0.56
2023-04-15T10:45:21.797Z,0.52
2023-04-15T10:46:21.837Z,0.53
2023-04-15T10:47:21.942Z,0.47
2023-04-15T10:48:21.808Z,0.56
2023-04-15T10:49:21.822Z,0.82
2023-04-15T10:50:21.814Z,0.87
2023-04-15T10:51:21.819Z,0.78
2023-04-15T10:52:21.848Z,0.70
2023-04-15T10:53:21.880Z,0.66
2023-04-15T10:54:21.856Z,0.61
2023-04-15T10:55:21.899Z,0.83
2023-04-15T10:56:21.895Z,0.71
2023-04-15T10:57:21.906Z,0.74
2023-04-15T10:58:21.920Z,0.69
2023-04-15T10:59:22.455Z,0.58
2023-04-15T11:00:21.944Z,0.55
2023-04-15T11:01:21.954Z,0.55
2023-04-15T11:02:22.079Z,0.54
2023-04-15T11:03:22.021Z,0.57
2023-04-15T11:04:22.043Z,0.57
2023-04-15T11:05:21.999Z,0.56
2023-04-15T11:06:22.013Z,0.52
2023-04-15T11:07:22.026Z,0.54
2023-04-15T11:08:22.027Z,0.52
2023-04-15T11:09:22.049Z,0.55
2023-04-15T11:10:22.040Z,0.69
2023-04-15T11:11:22.051Z,0.71
2023-04-15T11:12:22.077Z,0.80
2023-04-15T11:13:22.073Z,0.91
2023-04-15T11:14:22.090Z,0.91
2023-04-15T11:15:22.114Z,0.95
2023-04-15T11:16:22.116Z,0.93
2023-04-15T11:17:22.172Z,0.98
2023-04-15T11:18:22.133Z,1.00
2023-04-15T11:19:22.165Z,1.09
2023-04-15T11:20:22.151Z,0.96
2023-04-15T11:21:22.137Z,1.07
2023-04-15T11:22:22.162Z,1.07
2023-04-15T11:23:22.169Z,1.17
2023-04-15T11:24:22.188Z,1.16
2023-04-15T11:25:22.199Z,1.17
2023-04-15T11:26:22.178Z,1.13
2023-04-15T11:27:22.216Z,1.17
2023-04-15T11:28:22.202Z,1.27
2023-04-15T11:29:22.228Z,1.33
2023-04-15T11:30:22.236Z,1.19
2023-04-15T11:31:22.253Z,1.28
2023-04-15T11:32:22.242Z,1.25
2023-04-15T11:33:22.241Z,1.27
2023-04-15T11:34:22.258Z,1.25
2023-04-15T11:35:22.271Z,1.16
2023-04-15T11:36:22.252Z,1.24
2023-04-15T11:37:22.274Z,1.33
2023-04-15T11:38:22.299Z,1.15
2023-04-15T11:39:22.287Z,1.22
2023-04-15T11:40:22.308Z,1.26
2023-04-15T11:41:22.324Z,1.32
2023-04-15T11:42:22.306Z,1.24
2023-04-15T11:43:22.315Z,1.27
2023-04-15T11:44:22.306Z,1.23
2023-04-15T11:45:22.332Z,1.16
2023-04-15T11:46:22.382Z,1.12
2023-04-15T11:47:22.406Z,1.22
2023-04-15T11:48:22.362Z,1.18
2023-04-15T11:49:22.352Z,1.24
2023-04-15T11:50:22.390Z,1.15
2023-04-15T11:51:22.374Z,1.21
2023-04-15T11:52:22.388Z,1.18
2023-04-15T11:53:22.409Z,1.11
2023-04-15T11:54:22.413Z,1.10
2023-04-15T11:55:22.427Z,1.14
2023-04-15T11:56:22.423Z,1.23
2023-04-15T11:57:22.440Z,1.06
2023-04-15T11:58:22.452Z,0.96
2023-04-15T11:59:22.996Z,1.10
2023-04-15T12:00:22.454Z,1.13
2023-04-15T12:01:22.459Z,1.07
2023-04-15T12:02:22.614Z,1.14
2023-04-15T12:03:22.730Z,1.08
2023-04-15T12:04:25.167Z,1.02
2023-04-15T12:05:22.589Z,1.08
2023-04-15T12:06:22.521Z,1.12
2023-04-15T12:07:22.497Z,1.11
2023-04-15T12:08:22.480Z,1.13
2023-04-15T12:09:22.476Z,1.08
2023-04-15T12:10:22.454Z,1.04
2023-04-15T12:11:22.468Z,1.02
2023-04-15T12:12:22.457Z,1.01
2023-04-15T12:13:22.444Z,1.09
2023-04-15T12:14:22.425Z,1.12
2023-04-15T12:15:22.419Z,1.05
2023-04-15T12:16:22.438Z,1.01
2023-04-15T12:17:22.417Z,1.02
2023-04-15T12:18:22.420Z,1.00
2023-04-15T12:19:22.409Z,1.09
2023-04-15T12:20:22.392Z,1.11
2023-04-15T12:21:22.396Z,1.02
2023-04-15T12:22:22.389Z,1.02
2023-04-15T12:23:22.364Z,0.99
2023-04-15T12:24:22.359Z,1.02
2023-04-15T12:25:22.371Z,1.05
2023-04-15T12:26:22.364Z,1.10
2023-04-15T12:27:22.346Z,1.17
2023-04-15T12:28:22.341Z,1.15
2023-04-15T12:29:22.370Z,1.21
2023-04-15T12:30:22.354Z,1.20
2023-04-15T12:31:22.351Z,1.39
2023-04-15T12:32:22.337Z,1.34
2023-04-15T12:33:22.316Z,1.27
2023-04-15T12:34:22.297Z,1.42
2023-04-15T12:35:22.307Z,1.37
2023-04-15T12:36:22.277Z,1.38
2023-04-15T12:37:22.300Z,1.42
2023-04-15T12:38:22.283Z,1.26
2023-04-15T12:39:22.268Z,1.26
2023-04-15T12:40:22.264Z,1.32
2023-04-15T12:41:22.264Z,1.22
2023-04-15T12:42:22.256Z,1.24
2023-04-15T12:43:22.253Z,1.29
2023-04-15T12:44:22.324Z,1.27
2023-04-15T12:45:22.220Z,1.25
2023-04-15T12:46:22.242Z,1.25
2023-04-15T12:47:22.218Z,1.35
2023-04-15T12:48:22.218Z,1.27
2023-04-15T12:49:22.202Z,1.23
2023-04-15T12:50:22.202Z,1.32
2023-04-15T12:51:22.177Z,1.37
2023-04-15T12:52:22.174Z,1.42
2023-04-15T12:53:22.172Z,1.24
2023-04-15T12:54:22.154Z,1.27
2023-04-15T12:55:22.186Z,1.25
2023-04-15T12:56:22.170Z,1.35
2023-04-15T12:57:22.148Z,1.25
2023-04-15T12:58:22.131Z,1.20
2023-04-15T12:59:22.132Z,1.17
2023-04-15T13:00:22.109Z,1.17
2023-04-15T13:01:22.110Z,1.20
2023-04-15T13:02:22.228Z,1.16
2023-04-15T13:03:22.152Z,1.09
2023-04-15T13:04:22.245Z,1.11
2023-04-15T13:05:22.089Z,0.97
2023-04-15T13:06:22.098Z,1.00
2023-04-15T13:07:22.173Z,1.03
2023-04-15T13:08:22.078Z,1.06
2023-04-15T13:09:22.067Z,1.01
2023-04-15T13:10:22.046Z,0.99
2023-04-15T13:11:22.039Z,1.01
2023-04-15T13:12:22.136Z,0.97
2023-04-15T13:13:22.033Z,0.97
2023-04-15T13:14:22.018Z,0.99
2023-04-15T13:15:22.026Z,0.96
2023-04-15T13:16:22.112Z,0.96
2023-04-15T13:17:22.061Z,0.98
2023-04-15T13:18:21.980Z,0.98
2023-04-15T13:19:21.984Z,0.94